sensor_id;sensor_type;location;lat;lon;timestamp;P1;durP1;ratioP1;P2;durP2;ratioP2
46651;SDS011;32377;52.182;5.398;2023-03-05T00:01:38;17.90;;;3.57;;
46651;SDS011;32377;52.182;5.398;2023-03-05T00:04:06;12.80;;;2.60;;
46651;SDS011;32377;52.182;5.398;2023-03-05T00:06:34;11.47;;;2.60;;
46651;SDS011;32377;52.182;5.398;2023-03-05T00:09:00;9.80;;;2.60;;
46651;SDS011;32377;52.182;5.398;2023-03-05T00:11:26;14.43;;;2.33;;
46651;SDS011;32377;52.182;5.398;2023-03-05T00:13:57;21.70;;;3.37;;
46651;SDS011;32377;52.182;5.398;2023-03-05T00:16:24;17.27;;;3.00;;
46651;SDS011;32377;52.182;5.398;2023-03-05T00:18:51;12.10;;;2.53;;
46651;SDS011;32377;52.182;5.398;2023-03-05T00:21:28;10.33;;;2.03;;
46651;SDS011;32377;52.182;5.398;2023-03-05T00:23:56;10.90;;;2.60;;
46651;SDS011;32377;52.182;5.398;2023-03-05T00:26:25;12.20;;;2.77;;
46651;SDS011;32377;52.182;5.398;2023-03-05T00:28:52;17.27;;;3.00;;
46651;SDS011;32377;52.182;5.398;2023-03-05T00:31:19;17.60;;;3.47;;
46651;SDS011;32377;52.182;5.398;2023-03-05T00:33:53;8.40;;;2.57;;
46651;SDS011;32377;52.182;5.398;2023-03-05T00:36:20;15.80;;;3.27;;
46651;SDS011;32377;52.182;5.398;2023-03-05T00:38:46;8.67;;;2.97;;
46651;SDS011;32377;52.182;5.398;2023-03-05T00:41:12;14.70;;;3.17;;
46651;SDS011;32377;52.182;5.398;2023-03-05T00:43:38;15.30;;;3.00;;
46651;SDS011;32377;52.182;5.398;2023-03-05T00:46:03;14.70;;;3.70;;
46651;SDS011;32377;52.182;5.398;2023-03-05T00:48:29;11.40;;;3.10;;
46651;SDS011;32377;52.182;5.398;2023-03-05T00:50:55;12.40;;;3.83;;
46651;SDS011;32377;52.182;5.398;2023-03-05T00:53:20;15.63;;;4.17;;
46651;SDS011;32377;52.182;5.398;2023-03-05T00:55:46;16.77;;;3.90;;
46651;SDS011;32377;52.182;5.398;2023-03-05T00:58:12;16.07;;;3.80;;
46651;SDS011;32377;52.182;5.398;2023-03-05T01:00:38;13.03;;;4.10;;
46651;SDS011;32377;52.182;5.398;2023-03-05T01:03:04;15.50;;;4.50;;
46651;SDS011;32377;52.182;5.398;2023-03-05T01:05:30;17.47;;;4.63;;
46651;SDS011;32377;52.182;5.398;2023-03-05T01:07:55;14.37;;;3.90;;
46651;SDS011;32377;52.182;5.398;2023-03-05T01:10:22;16.30;;;4.40;;
46651;SDS011;32377;52.182;5.398;2023-03-05T01:12:50;16.00;;;4.57;;
46651;SDS011;32377;52.182;5.398;2023-03-05T01:15:19;21.20;;;4.23;;
46651;SDS011;32377;52.182;5.398;2023-03-05T01:17:45;16.63;;;4.20;;
46651;SDS011;32377;52.182;5.398;2023-03-05T01:20:11;16.30;;;3.67;;
46651;SDS011;32377;52.182;5.398;2023-03-05T01:22:39;13.17;;;3.97;;
46651;SDS011;32377;52.182;5.398;2023-03-05T01:25:05;17.50;;;5.07;;
46651;SDS011;32377;52.182;5.398;2023-03-05T01:27:31;14.37;;;4.10;;
46651;SDS011;32377;52.182;5.398;2023-03-05T01:29:57;14.63;;;3.97;;
46651;SDS011;32377;52.182;5.398;2023-03-05T01:32:23;12.83;;;3.60;;
46651;SDS011;32377;52.182;5.398;2023-03-05T01:34:48;12.57;;;4.30;;
46651;SDS011;32377;52.182;5.398;2023-03-05T01:37:14;16.10;;;3.87;;
46651;SDS011;32377;52.182;5.398;2023-03-05T01:39:40;11.83;;;3.60;;
46651;SDS011;32377;52.182;5.398;2023-03-05T01:42:05;11.77;;;4.37;;
46651;SDS011;32377;52.182;5.398;2023-03-05T01:44:31;16.73;;;5.60;;
46651;SDS011;32377;52.182;5.398;2023-03-05T01:46:58;19.70;;;4.40;;
46651;SDS011;32377;52.182;5.398;2023-03-05T01:49:37;12.20;;;4.23;;
46651;SDS011;32377;52.182;5.398;2023-03-05T01:52:11;13.13;;;4.17;;
46651;SDS011;32377;52.182;5.398;2023-03-05T01:57:12;16.13;;;4.03;;
46651;SDS011;32377;52.182;5.398;2023-03-05T01:59:40;12.73;;;3.70;;
46651;SDS011;32377;52.182;5.398;2023-03-05T02:02:09;8.83;;;3.43;;
46651;SDS011;32377;52.182;5.398;2023-03-05T02:04:45;15.20;;;3.73;;
46651;SDS011;32377;52.182;5.398;2023-03-05T02:07:14;17.50;;;5.10;;
46651;SDS011;32377;52.182;5.398;2023-03-05T02:09:41;13.00;;;4.53;;
46651;SDS011;32377;52.182;5.398;2023-03-05T02:12:07;14.50;;;3.63;;
46651;SDS011;32377;52.182;5.398;2023-03-05T02:14:34;15.57;;;4.23;;
46651;SDS011;32377;52.182;5.398;2023-03-05T02:17:00;15.27;;;4.20;;
46651;SDS011;32377;52.182;5.398;2023-03-05T02:19:26;13.67;;;3.70;;
46651;SDS011;32377;52.182;5.398;2023-03-05T02:21:52;18.53;;;4.23;;
46651;SDS011;32377;52.182;5.398;2023-03-05T02:24:31;10.60;;;4.03;;
46651;SDS011;32377;52.182;5.398;2023-03-05T02:27:00;13.53;;;4.00;;
46651;SDS011;32377;52.182;5.398;2023-03-05T02:29:27;15.87;;;4.87;;
46651;SDS011;32377;52.182;5.398;2023-03-05T02:31:54;23.27;;;5.17;;
46651;SDS011;32377;52.182;5.398;2023-03-05T02:34:20;16.23;;;4.50;;
46651;SDS011;32377;52.182;5.398;2023-03-05T02:36:47;21.17;;;4.73;;
46651;SDS011;32377;52.182;5.398;2023-03-05T02:39:14;19.97;;;5.13;;
46651;SDS011;32377;52.182;5.398;2023-03-05T02:41:40;15.27;;;4.83;;
46651;SDS011;32377;52.182;5.398;2023-03-05T02:44:06;17.80;;;4.80;;
46651;SDS011;32377;52.182;5.398;2023-03-05T02:46:32;16.93;;;5.13;;
46651;SDS011;32377;52.182;5.398;2023-03-05T02:48:58;13.57;;;5.03;;
46651;SDS011;32377;52.182;5.398;2023-03-05T02:51:23;14.20;;;5.23;;
46651;SDS011;32377;52.182;5.398;2023-03-05T02:53:49;20.40;;;5.17;;
46651;SDS011;32377;52.182;5.398;2023-03-05T02:56:14;15.60;;;5.20;;
46651;SDS011;32377;52.182;5.398;2023-03-05T02:58:40;14.87;;;5.60;;
46651;SDS011;32377;52.182;5.398;2023-03-05T03:01:06;17.77;;;4.73;;
46651;SDS011;32377;52.182;5.398;2023-03-05T03:03:34;18.20;;;4.87;;
46651;SDS011;32377;52.182;5.398;2023-03-05T03:06:00;12.63;;;4.20;;
46651;SDS011;32377;52.182;5.398;2023-03-05T03:08:25;11.20;;;4.53;;
46651;SDS011;32377;52.182;5.398;2023-03-05T03:10:51;17.17;;;4.40;;
46651;SDS011;32377;52.182;5.398;2023-03-05T03:13:16;8.67;;;4.17;;
46651;SDS011;32377;52.182;5.398;2023-03-05T03:15:42;12.53;;;4.17;;
46651;SDS011;32377;52.182;5.398;2023-03-05T03:18:08;18.10;;;5.20;;
46651;SDS011;32377;52.182;5.398;2023-03-05T03:20:35;13.43;;;4.57;;
46651;SDS011;32377;52.182;5.398;2023-03-05T03:23:03;15.77;;;4.43;;
46651;SDS011;32377;52.182;5.398;2023-03-05T03:25:29;11.47;;;3.77;;
46651;SDS011;32377;52.182;5.398;2023-03-05T03:27:55;21.03;;;4.53;;
46651;SDS011;32377;52.182;5.398;2023-03-05T03:30:20;15.67;;;4.03;;
46651;SDS011;32377;52.182;5.398;2023-03-05T03:32:46;18.53;;;3.90;;
46651;SDS011;32377;52.182;5.398;2023-03-05T03:35:12;19.43;;;5.20;;
46651;SDS011;32377;52.182;5.398;2023-03-05T03:37:38;17.10;;;3.50;;
46651;SDS011;32377;52.182;5.398;2023-03-05T03:40:04;14.67;;;3.60;;
46651;SDS011;32377;52.182;5.398;2023-03-05T03:42:30;14.90;;;4.17;;
46651;SDS011;32377;52.182;5.398;2023-03-05T03:44:56;12.47;;;3.53;;
46651;SDS011;32377;52.182;5.398;2023-03-05T03:47:21;13.83;;;4.07;;
46651;SDS011;32377;52.182;5.398;2023-03-05T03:49:47;11.97;;;4.27;;
46651;SDS011;32377;52.182;5.398;2023-03-05T03:52:12;14.07;;;3.57;;
46651;SDS011;32377;52.182;5.398;2023-03-05T03:54:38;22.30;;;4.03;;
46651;SDS011;32377;52.182;5.398;2023-03-05T03:57:04;9.77;;;3.87;;
46651;SDS011;32377;52.182;5.398;2023-03-05T03:59:29;11.53;;;3.97;;
46651;SDS011;32377;52.182;5.398;2023-03-05T04:01:55;14.63;;;4.13;;
46651;SDS011;32377;52.182;5.398;2023-03-05T04:04:20;18.70;;;3.93;;
46651;SDS011;32377;52.182;5.398;2023-03-05T04:06:46;14.80;;;3.37;;
46651;SDS011;32377;52.182;5.398;2023-03-05T04:09:12;17.60;;;3.30;;
46651;SDS011;32377;52.182;5.398;2023-03-05T04:11:38;16.30;;;4.00;;
46651;SDS011;32377;52.182;5.398;2023-03-05T04:14:04;15.10;;;3.97;;
46651;SDS011;32377;52.182;5.398;2023-03-05T04:16:29;14.03;;;3.60;;
46651;SDS011;32377;52.182;5.398;2023-03-05T04:18:55;10.20;;;3.40;;
46651;SDS011;32377;52.182;5.398;2023-03-05T04:21:21;10.20;;;3.40;;
46651;SDS011;32377;52.182;5.398;2023-03-05T04:23:46;10.43;;;3.77;;
46651;SDS011;32377;52.182;5.398;2023-03-05T04:26:12;16.03;;;3.37;;
46651;SDS011;32377;52.182;5.398;2023-03-05T04:28:38;13.17;;;3.90;;
46651;SDS011;32377;52.182;5.398;2023-03-05T04:31:03;8.43;;;3.30;;
46651;SDS011;32377;52.182;5.398;2023-03-05T04:33:29;11.10;;;3.80;;
46651;SDS011;32377;52.182;5.398;2023-03-05T04:35:55;15.00;;;3.60;;
46651;SDS011;32377;52.182;5.398;2023-03-05T04:38:20;11.23;;;3.10;;
46651;SDS011;32377;52.182;5.398;2023-03-05T04:40:46;13.93;;;3.47;;
46651;SDS011;32377;52.182;5.398;2023-03-05T04:43:12;15.07;;;4.03;;
46651;SDS011;32377;52.182;5.398;2023-03-05T04:45:38;12.70;;;3.13;;
46651;SDS011;32377;52.182;5.398;2023-03-05T04:48:05;11.00;;;3.07;;
46651;SDS011;32377;52.182;5.398;2023-03-05T04:50:31;13.87;;;3.13;;
46651;SDS011;32377;52.182;5.398;2023-03-05T04:52:56;10.83;;;3.07;;
46651;SDS011;32377;52.182;5.398;2023-03-05T04:55:22;11.07;;;2.90;;
46651;SDS011;32377;52.182;5.398;2023-03-05T04:59:08;9.90;;;2.83;;
46651;SDS011;32377;52.182;5.398;2023-03-05T05:01:34;14.37;;;2.83;;
46651;SDS011;32377;52.182;5.398;2023-03-05T05:04:00;8.17;;;2.83;;
46651;SDS011;32377;52.182;5.398;2023-03-05T05:06:26;5.33;;;2.63;;
46651;SDS011;32377;52.182;5.398;2023-03-05T05:08:51;7.47;;;2.87;;
46651;SDS011;32377;52.182;5.398;2023-03-05T05:11:17;9.73;;;3.57;;
46651;SDS011;32377;52.182;5.398;2023-03-05T05:13:42;8.03;;;2.93;;
46651;SDS011;32377;52.182;5.398;2023-03-05T05:16:08;10.87;;;2.77;;
46651;SDS011;32377;52.182;5.398;2023-03-05T05:18:34;11.57;;;2.80;;
46651;SDS011;32377;52.182;5.398;2023-03-05T05:21:00;13.77;;;2.57;;
46651;SDS011;32377;52.182;5.398;2023-03-05T05:23:25;6.80;;;2.23;;
46651;SDS011;32377;52.182;5.398;2023-03-05T05:25:58;10.40;;;2.60;;
46651;SDS011;32377;52.182;5.398;2023-03-05T05:28:26;13.90;;;2.95;;
46651;SDS011;32377;52.182;5.398;2023-03-05T05:30:52;10.00;;;2.27;;
46651;SDS011;32377;52.182;5.398;2023-03-05T05:33:18;9.37;;;2.43;;
46651;SDS011;32377;52.182;5.398;2023-03-05T05:35:44;5.13;;;2.40;;
46651;SDS011;32377;52.182;5.398;2023-03-05T05:38:09;7.87;;;2.53;;
46651;SDS011;32377;52.182;5.398;2023-03-05T05:40:35;11.33;;;3.00;;
46651;SDS011;32377;52.182;5.398;2023-03-05T05:43:00;7.37;;;2.50;;
46651;SDS011;32377;52.182;5.398;2023-03-05T05:45:26;9.87;;;2.60;;
46651;SDS011;32377;52.182;5.398;2023-03-05T05:47:52;8.87;;;2.87;;
46651;SDS011;32377;52.182;5.398;2023-03-05T05:50:18;12.57;;;2.83;;
46651;SDS011;32377;52.182;5.398;2023-03-05T05:52:44;10.07;;;2.80;;
46651;SDS011;32377;52.182;5.398;2023-03-05T05:55:10;11.87;;;2.60;;
46651;SDS011;32377;52.182;5.398;2023-03-05T05:57:35;15.47;;;3.23;;
46651;SDS011;32377;52.182;5.398;2023-03-05T06:00:02;10.73;;;3.13;;
46651;SDS011;32377;52.182;5.398;2023-03-05T06:02:29;12.23;;;3.30;;
46651;SDS011;32377;52.182;5.398;2023-03-05T06:04:55;19.77;;;4.00;;
46651;SDS011;32377;52.182;5.398;2023-03-05T06:07:21;12.10;;;3.40;;
46651;SDS011;32377;52.182;5.398;2023-03-05T06:09:46;9.90;;;3.07;;
46651;SDS011;32377;52.182;5.398;2023-03-05T06:12:12;13.67;;;3.17;;
46651;SDS011;32377;52.182;5.398;2023-03-05T06:14:38;10.50;;;3.50;;
46651;SDS011;32377;52.182;5.398;2023-03-05T06:17:03;8.87;;;3.00;;
46651;SDS011;32377;52.182;5.398;2023-03-05T06:19:29;7.50;;;3.40;;
46651;SDS011;32377;52.182;5.398;2023-03-05T06:21:55;12.10;;;3.17;;
46651;SDS011;32377;52.182;5.398;2023-03-05T06:24:20;6.67;;;3.20;;
46651;SDS011;32377;52.182;5.398;2023-03-05T06:26:46;9.97;;;3.87;;
46651;SDS011;32377;52.182;5.398;2023-03-05T06:29:13;9.57;;;3.73;;
46651;SDS011;32377;52.182;5.398;2023-03-05T06:31:39;11.43;;;5.00;;
46651;SDS011;32377;52.182;5.398;2023-03-05T06:34:05;8.47;;;3.20;;
46651;SDS011;32377;52.182;5.398;2023-03-05T06:36:31;12.73;;;4.50;;
46651;SDS011;32377;52.182;5.398;2023-03-05T06:38:57;14.17;;;4.07;;
46651;SDS011;32377;52.182;5.398;2023-03-05T06:41:24;15.40;;;4.10;;
46651;SDS011;32377;52.182;5.398;2023-03-05T06:43:51;10.53;;;3.37;;
46651;SDS011;32377;52.182;5.398;2023-03-05T06:46:19;11.87;;;3.20;;
46651;SDS011;32377;52.182;5.398;2023-03-05T06:48:45;10.53;;;3.43;;
46651;SDS011;32377;52.182;5.398;2023-03-05T06:51:15;16.70;;;4.63;;
46651;SDS011;32377;52.182;5.398;2023-03-05T06:53:43;10.43;;;3.57;;
46651;SDS011;32377;52.182;5.398;2023-03-05T06:56:10;14.27;;;3.73;;
46651;SDS011;32377;52.182;5.398;2023-03-05T06:58:38;13.47;;;3.50;;
46651;SDS011;32377;52.182;5.398;2023-03-05T07:01:05;13.63;;;4.03;;
46651;SDS011;32377;52.182;5.398;2023-03-05T07:03:31;16.57;;;4.27;;
46651;SDS011;32377;52.182;5.398;2023-03-05T07:06:00;9.00;;;3.33;;
46651;SDS011;32377;52.182;5.398;2023-03-05T07:08:27;13.17;;;3.67;;
46651;SDS011;32377;52.182;5.398;2023-03-05T07:10:53;8.20;;;3.47;;
46651;SDS011;32377;52.182;5.398;2023-03-05T07:13:18;15.83;;;4.80;;
46651;SDS011;32377;52.182;5.398;2023-03-05T07:15:44;10.10;;;3.50;;
46651;SDS011;32377;52.182;5.398;2023-03-05T07:18:09;11.53;;;3.93;;
46651;SDS011;32377;52.182;5.398;2023-03-05T07:20:35;8.10;;;3.57;;
46651;SDS011;32377;52.182;5.398;2023-03-05T07:23:01;10.23;;;3.17;;
46651;SDS011;32377;52.182;5.398;2023-03-05T07:25:27;14.80;;;2.80;;
46651;SDS011;32377;52.182;5.398;2023-03-05T07:27:53;11.50;;;3.30;;
46651;SDS011;32377;52.182;5.398;2023-03-05T07:30:18;10.10;;;3.63;;
46651;SDS011;32377;52.182;5.398;2023-03-05T07:32:44;14.70;;;3.43;;
46651;SDS011;32377;52.182;5.398;2023-03-05T07:35:10;13.50;;;3.60;;
46651;SDS011;32377;52.182;5.398;2023-03-05T07:37:35;8.40;;;3.63;;
46651;SDS011;32377;52.182;5.398;2023-03-05T07:40:01;8.73;;;2.60;;
46651;SDS011;32377;52.182;5.398;2023-03-05T07:42:28;8.10;;;2.97;;
46651;SDS011;32377;52.182;5.398;2023-03-05T07:44:54;7.20;;;3.23;;
46651;SDS011;32377;52.182;5.398;2023-03-05T07:47:20;5.70;;;2.70;;
46651;SDS011;32377;52.182;5.398;2023-03-05T07:49:47;11.70;;;2.80;;
46651;SDS011;32377;52.182;5.398;2023-03-05T07:52:13;6.60;;;3.60;;
46651;SDS011;32377;52.182;5.398;2023-03-05T07:54:39;8.47;;;2.83;;
46651;SDS011;32377;52.182;5.398;2023-03-05T07:57:05;6.50;;;2.80;;
46651;SDS011;32377;52.182;5.398;2023-03-05T07:59:32;8.57;;;2.67;;
46651;SDS011;32377;52.182;5.398;2023-03-05T08:01:57;7.70;;;2.90;;
46651;SDS011;32377;52.182;5.398;2023-03-05T08:04:23;6.70;;;2.63;;
46651;SDS011;32377;52.182;5.398;2023-03-05T08:06:49;9.37;;;2.40;;
46651;SDS011;32377;52.182;5.398;2023-03-05T08:09:15;6.63;;;2.47;;
46651;SDS011;32377;52.182;5.398;2023-03-05T08:11:41;4.57;;;2.70;;
46651;SDS011;32377;52.182;5.398;2023-03-05T08:14:07;8.83;;;2.27;;
46651;SDS011;32377;52.182;5.398;2023-03-05T08:16:33;7.70;;;2.73;;
46651;SDS011;32377;52.182;5.398;2023-03-05T08:18:59;5.87;;;2.60;;
46651;SDS011;32377;52.182;5.398;2023-03-05T08:21:26;8.60;;;1.90;;
46651;SDS011;32377;52.182;5.398;2023-03-05T08:23:56;8.70;;;2.27;;
46651;SDS011;32377;52.182;5.398;2023-03-05T08:26:23;5.43;;;2.20;;
46651;SDS011;32377;52.182;5.398;2023-03-05T08:28:51;7.63;;;2.50;;
46651;SDS011;32377;52.182;5.398;2023-03-05T08:31:18;11.47;;;3.17;;
46651;SDS011;32377;52.182;5.398;2023-03-05T08:33:45;7.75;;;2.33;;
46651;SDS011;32377;52.182;5.398;2023-03-05T08:36:12;7.47;;;2.03;;
46651;SDS011;32377;52.182;5.398;2023-03-05T08:38:38;6.45;;;2.42;;
46651;SDS011;32377;52.182;5.398;2023-03-05T08:41:07;7.38;;;2.42;;
46651;SDS011;32377;52.182;5.398;2023-03-05T08:43:33;8.70;;;2.30;;
46651;SDS011;32377;52.182;5.398;2023-03-05T08:45:58;6.10;;;1.85;;
46651;SDS011;32377;52.182;5.398;2023-03-05T08:48:25;3.75;;;1.90;;
46651;SDS011;32377;52.182;5.398;2023-03-05T08:50:50;11.40;;;2.47;;
46651;SDS011;32377;52.182;5.398;2023-03-05T08:53:17;6.82;;;1.90;;
46651;SDS011;32377;52.182;5.398;2023-03-05T08:55:42;4.75;;;2.10;;
46651;SDS011;32377;52.182;5.398;2023-03-05T08:58:08;7.07;;;2.05;;
46651;SDS011;32377;52.182;5.398;2023-03-05T09:00:34;3.75;;;1.95;;
46651;SDS011;32377;52.182;5.398;2023-03-05T09:02:59;5.40;;;2.15;;
46651;SDS011;32377;52.182;5.398;2023-03-05T09:05:25;8.45;;;3.03;;
46651;SDS011;32377;52.182;5.398;2023-03-05T09:07:51;5.68;;;2.47;;
46651;SDS011;32377;52.182;5.398;2023-03-05T09:10:16;6.82;;;2.38;;
46651;SDS011;32377;52.182;5.398;2023-03-05T09:12:43;4.07;;;2.28;;
46651;SDS011;32377;52.182;5.398;2023-03-05T09:15:09;5.45;;;2.30;;
46651;SDS011;32377;52.182;5.398;2023-03-05T09:17:36;4.88;;;1.95;;
46651;SDS011;32377;52.182;5.398;2023-03-05T09:20:03;5.20;;;2.33;;
46651;SDS011;32377;52.182;5.398;2023-03-05T09:22:30;5.35;;;2.08;;
46651;SDS011;32377;52.182;5.398;2023-03-05T09:24:56;7.72;;;2.42;;
46651;SDS011;32377;52.182;5.398;2023-03-05T09:27:22;7.72;;;2.40;;
46651;SDS011;32377;52.182;5.398;2023-03-05T09:29:48;4.80;;;1.75;;
46651;SDS011;32377;52.182;5.398;2023-03-05T09:32:14;4.15;;;1.60;;
46651;SDS011;32377;52.182;5.398;2023-03-05T09:34:40;7.22;;;2.03;;
46651;SDS011;32377;52.182;5.398;2023-03-05T09:37:05;6.65;;;2.17;;
46651;SDS011;32377;52.182;5.398;2023-03-05T09:39:32;7.70;;;2.15;;
46651;SDS011;32377;52.182;5.398;2023-03-05T09:42:21;9.40;;;2.00;;
46651;SDS011;32377;52.182;5.398;2023-03-05T09:50:04;3.13;;;1.90;;
46651;SDS011;32377;52.182;5.398;2023-03-05T09:55:15;6.93;;;2.08;;
46651;SDS011;32377;52.182;5.398;2023-03-05T09:58:16;8.90;;;3.85;;
46651;SDS011;32377;52.182;5.398;2023-03-05T10:01:14;6.47;;;1.60;;
46651;SDS011;32377;52.182;5.398;2023-03-05T10:06:28;6.85;;;1.83;;
46651;SDS011;32377;52.182;5.398;2023-03-05T10:09:06;4.60;;;1.20;;
46651;SDS011;32377;52.182;5.398;2023-03-05T10:14:23;5.00;;;1.75;;
46651;SDS011;32377;52.182;5.398;2023-03-05T10:23:20;4.97;;;1.90;;
46651;SDS011;32377;52.182;5.398;2023-03-05T10:26:13;2.90;;;1.13;;
46651;SDS011;32377;52.182;5.398;2023-03-05T10:28:56;4.47;;;1.67;;
46651;SDS011;32377;52.182;5.398;2023-03-05T10:45:39;5.68;;;1.20;;
46651;SDS011;32377;52.182;5.398;2023-03-05T10:51:17;2.22;;;1.00;;
46651;SDS011;32377;52.182;5.398;2023-03-05T10:59:08;3.97;;;0.80;;
46651;SDS011;32377;52.182;5.398;2023-03-05T11:01:34;7.75;;;2.28;;
46651;SDS011;32377;52.182;5.398;2023-03-05T11:04:05;4.32;;;1.15;;
46651;SDS011;32377;52.182;5.398;2023-03-05T11:06:33;1.98;;;0.77;;
46651;SDS011;32377;52.182;5.398;2023-03-05T11:12:10;5.50;;;0.73;;
46651;SDS011;32377;52.182;5.398;2023-03-05T11:17:36;6.60;;;1.23;;
46651;SDS011;32377;52.182;5.398;2023-03-05T11:25:34;3.03;;;0.70;;
46651;SDS011;32377;52.182;5.398;2023-03-05T11:28:18;4.03;;;0.90;;
46651;SDS011;32377;52.182;5.398;2023-03-05T11:31:05;5.18;;;0.98;;
46651;SDS011;32377;52.182;5.398;2023-03-05T11:33:32;5.43;;;1.10;;
46651;SDS011;32377;52.182;5.398;2023-03-05T11:36:20;3.75;;;1.27;;
46651;SDS011;32377;52.182;5.398;2023-03-05T11:41:41;5.70;;;0.85;;
46651;SDS011;32377;52.182;5.398;2023-03-05T11:44:41;5.53;;;0.85;;
46651;SDS011;32377;52.182;5.398;2023-03-05T11:47:28;4.68;;;1.20;;
46651;SDS011;32377;52.182;5.398;2023-03-05T11:50:26;5.35;;;1.02;;
46651;SDS011;32377;52.182;5.398;2023-03-05T12:00:56;2.55;;;0.77;;
46651;SDS011;32377;52.182;5.398;2023-03-05T12:03:24;3.00;;;0.90;;
46651;SDS011;32377;52.182;5.398;2023-03-05T12:05:58;2.83;;;0.65;;
46651;SDS011;32377;52.182;5.398;2023-03-05T12:08:31;2.33;;;0.70;;
46651;SDS011;32377;52.182;5.398;2023-03-05T12:11:02;3.90;;;0.90;;
46651;SDS011;32377;52.182;5.398;2023-03-05T12:21:34;3.72;;;0.57;;
46651;SDS011;32377;52.182;5.398;2023-03-05T12:24:03;5.63;;;1.95;;
46651;SDS011;32377;52.182;5.398;2023-03-05T12:29:47;6.53;;;1.25;;
46651;SDS011;32377;52.182;5.398;2023-03-05T12:34:47;1.67;;;0.80;;
46651;SDS011;32377;52.182;5.398;2023-03-05T12:37:55;3.35;;;0.90;;
46651;SDS011;32377;52.182;5.398;2023-03-05T12:40:18;3.92;;;0.70;;
46651;SDS011;32377;52.182;5.398;2023-03-05T12:45:30;5.65;;;0.70;;
46651;SDS011;32377;52.182;5.398;2023-03-05T12:53:12;4.28;;;0.80;;
46651;SDS011;32377;52.182;5.398;2023-03-05T12:58:16;4.10;;;0.73;;
46651;SDS011;32377;52.182;5.398;2023-03-05T13:00:44;3.60;;;0.73;;
46651;SDS011;32377;52.182;5.398;2023-03-05T13:06:19;5.55;;;1.08;;
46651;SDS011;32377;52.182;5.398;2023-03-05T13:08:54;6.25;;;0.73;;
46651;SDS011;32377;52.182;5.398;2023-03-05T13:11:33;3.20;;;0.70;;
46651;SDS011;32377;52.182;5.398;2023-03-05T13:14:02;4.20;;;0.80;;
46651;SDS011;32377;52.182;5.398;2023-03-05T13:16:30;3.97;;;1.05;;
46651;SDS011;32377;52.182;5.398;2023-03-05T13:19:02;4.45;;;1.40;;
46651;SDS011;32377;52.182;5.398;2023-03-05T13:21:29;2.65;;;0.70;;
46651;SDS011;32377;52.182;5.398;2023-03-05T13:23:58;4.45;;;0.70;;
46651;SDS011;32377;52.182;5.398;2023-03-05T13:34:29;3.30;;;0.73;;
46651;SDS011;32377;52.182;5.398;2023-03-05T13:37:03;3.13;;;0.80;;
46651;SDS011;32377;52.182;5.398;2023-03-05T13:39:36;2.55;;;0.70;;
46651;SDS011;32377;52.182;5.398;2023-03-05T13:42:15;3.70;;;1.02;;
46651;SDS011;32377;52.182;5.398;2023-03-05T13:44:51;4.80;;;1.05;;
46651;SDS011;32377;52.182;5.398;2023-03-05T13:47:22;4.13;;;0.95;;
46651;SDS011;32377;52.182;5.398;2023-03-05T13:49:56;2.63;;;0.73;;
46651;SDS011;32377;52.182;5.398;2023-03-05T13:52:24;4.05;;;0.90;;
46651;SDS011;32377;52.182;5.398;2023-03-05T13:54:56;8.45;;;1.27;;
46651;SDS011;32377;52.182;5.398;2023-03-05T13:57:36;3.75;;;1.00;;
46651;SDS011;32377;52.182;5.398;2023-03-05T14:00:30;3.10;;;0.90;;
46651;SDS011;32377;52.182;5.398;2023-03-05T14:03:06;2.85;;;1.00;;
46651;SDS011;32377;52.182;5.398;2023-03-05T14:05:34;5.10;;;1.15;;
46651;SDS011;32377;52.182;5.398;2023-03-05T14:08:00;2.85;;;0.73;;
46651;SDS011;32377;52.182;5.398;2023-03-05T14:10:30;12.48;;;1.52;;
46651;SDS011;32377;52.182;5.398;2023-03-05T14:13:12;4.63;;;1.00;;
46651;SDS011;32377;52.182;5.398;2023-03-05T14:15:42;7.97;;;1.00;;
46651;SDS011;32377;52.182;5.398;2023-03-05T14:18:12;2.88;;;0.98;;
46651;SDS011;32377;52.182;5.398;2023-03-05T14:26:17;3.78;;;1.20;;
46651;SDS011;32377;52.182;5.398;2023-03-05T14:28:49;9.38;;;1.90;;
46651;SDS011;32377;52.182;5.398;2023-03-05T14:31:20;6.22;;;1.88;;
46651;SDS011;32377;52.182;5.398;2023-03-05T14:33:48;5.82;;;1.70;;
46651;SDS011;32377;52.182;5.398;2023-03-05T14:36:19;6.38;;;2.60;;
46651;SDS011;32377;52.182;5.398;2023-03-05T14:38:47;8.57;;;1.92;;
46651;SDS011;32377;52.182;5.398;2023-03-05T14:42:03;6.35;;;2.05;;
46651;SDS011;32377;52.182;5.398;2023-03-05T14:44:10;5.80;;;1.60;;
46651;SDS011;32377;52.182;5.398;2023-03-05T14:46:38;7.43;;;1.80;;
46651;SDS011;32377;52.182;5.398;2023-03-05T14:49:04;8.35;;;2.28;;
46651;SDS011;32377;52.182;5.398;2023-03-05T14:51:31;2.28;;;1.60;;
46651;SDS011;32377;52.182;5.398;2023-03-05T14:53:59;6.53;;;2.58;;
46651;SDS011;32377;52.182;5.398;2023-03-05T14:56:25;6.07;;;2.60;;
46651;SDS011;32377;52.182;5.398;2023-03-05T14:58:53;7.28;;;2.85;;
46651;SDS011;32377;52.182;5.398;2023-03-05T15:01:19;5.53;;;2.58;;
46651;SDS011;32377;52.182;5.398;2023-03-05T15:03:45;6.47;;;2.45;;
46651;SDS011;32377;52.182;5.398;2023-03-05T15:06:15;11.35;;;2.95;;
46651;SDS011;32377;52.182;5.398;2023-03-05T15:08:47;6.97;;;3.92;;
46651;SDS011;32377;52.182;5.398;2023-03-05T15:11:13;7.22;;;2.90;;
46651;SDS011;32377;52.182;5.398;2023-03-05T15:13:38;9.40;;;3.53;;
46651;SDS011;32377;52.182;5.398;2023-03-05T15:16:04;8.63;;;3.30;;
46651;SDS011;32377;52.182;5.398;2023-03-05T15:18:31;5.78;;;3.15;;
46651;SDS011;32377;52.182;5.398;2023-03-05T15:20:57;5.22;;;3.42;;
46651;SDS011;32377;52.182;5.398;2023-03-05T15:23:23;9.65;;;3.60;;
46651;SDS011;32377;52.182;5.398;2023-03-05T15:25:48;7.15;;;3.17;;
46651;SDS011;32377;52.182;5.398;2023-03-05T15:28:15;7.80;;;3.90;;
46651;SDS011;32377;52.182;5.398;2023-03-05T15:30:43;8.30;;;3.65;;
46651;SDS011;32377;52.182;5.398;2023-03-05T15:33:14;8.80;;;4.43;;
46651;SDS011;32377;52.182;5.398;2023-03-05T15:35:41;7.53;;;3.38;;
46651;SDS011;32377;52.182;5.398;2023-03-05T15:38:06;7.32;;;3.35;;
46651;SDS011;32377;52.182;5.398;2023-03-05T15:40:32;9.88;;;3.60;;
46651;SDS011;32377;52.182;5.398;2023-03-05T15:42:58;8.13;;;3.13;;
46651;SDS011;32377;52.182;5.398;2023-03-05T15:45:24;6.30;;;2.55;;
46651;SDS011;32377;52.182;5.398;2023-03-05T15:47:51;5.50;;;3.20;;
46651;SDS011;32377;52.182;5.398;2023-03-05T15:50:20;8.27;;;2.92;;
46651;SDS011;32377;52.182;5.398;2023-03-05T15:52:46;4.20;;;2.40;;
46651;SDS011;32377;52.182;5.398;2023-03-05T15:55:13;4.43;;;2.28;;
46651;SDS011;32377;52.182;5.398;2023-03-05T15:57:42;5.40;;;2.30;;
46651;SDS011;32377;52.182;5.398;2023-03-05T16:00:09;4.72;;;2.50;;
46651;SDS011;32377;52.182;5.398;2023-03-05T16:02:36;7.97;;;2.40;;
46651;SDS011;32377;52.182;5.398;2023-03-05T16:05:02;8.57;;;2.72;;
46651;SDS011;32377;52.182;5.398;2023-03-05T16:07:28;9.70;;;2.55;;
46651;SDS011;32377;52.182;5.398;2023-03-05T16:09:54;6.88;;;2.28;;
46651;SDS011;32377;52.182;5.398;2023-03-05T16:12:21;8.13;;;2.38;;
46651;SDS011;32377;52.182;5.398;2023-03-05T16:14:50;10.27;;;2.42;;
46651;SDS011;32377;52.182;5.398;2023-03-05T16:17:16;6.00;;;2.13;;
46651;SDS011;32377;52.182;5.398;2023-03-05T16:19:45;6.55;;;2.28;;
46651;SDS011;32377;52.182;5.398;2023-03-05T16:22:13;4.65;;;2.05;;
46651;SDS011;32377;52.182;5.398;2023-03-05T16:24:39;7.13;;;2.03;;
46651;SDS011;32377;52.182;5.398;2023-03-05T16:27:04;12.07;;;2.78;;
46651;SDS011;32377;52.182;5.398;2023-03-05T16:29:31;9.90;;;2.35;;
46651;SDS011;32377;52.182;5.398;2023-03-05T16:31:58;5.78;;;2.22;;
46651;SDS011;32377;52.182;5.398;2023-03-05T16:34:26;5.95;;;2.28;;
46651;SDS011;32377;52.182;5.398;2023-03-05T16:36:51;9.88;;;2.78;;